sensor_id;sensor_type;location;lat;lon;timestamp;noise_LAeq;noise_LA_min;noise_LA_max;noise_LA01;noise_LA95
47109;Laerm;32856;51.422;6.794;2023-12-20T00:00:26;47.88;40.53;54.34;;
47109;Laerm;32856;51.422;6.794;2023-12-20T00:02:53;56.78;40.03;74.30;;
47109;Laerm;32856;51.422;6.794;2023-12-20T00:05:21;54.69;41.06;70.01;;
47109;Laerm;32856;51.422;6.794;2023-12-20T00:07:48;46.91;41.68;53.23;;
47109;Laerm;32856;51.422;6.794;2023-12-20T00:10:16;46.61;42.29;53.21;;
47109;Laerm;32856;51.422;6.794;2023-12-20T00:12:43;54.81;42.59;71.76;;
47109;Laerm;32856;51.422;6.794;2023-12-20T00:15:11;58.17;40.89;73.21;;
47109;Laerm;32856;51.422;6.794;2023-12-20T00:17:39;59.89;44.39;73.55;;
47109;Laerm;32856;51.422;6.794;2023-12-20T00:20:07;46.52;41.30;54.58;;
47109;Laerm;32856;51.422;6.794;2023-12-20T00:22:35;51.01;40.80;57.86;;
47109;Laerm;32856;51.422;6.794;2023-12-20T00:25:02;49.62;40.33;67.81;;
47109;Laerm;32856;51.422;6.794;2023-12-20T00:27:30;45.44;41.14;50.13;;
47109;Laerm;32856;51.422;6.794;2023-12-20T00:29:57;49.68;42.88;55.80;;
47109;Laerm;32856;51.422;6.794;2023-12-20T00:32:25;47.72;41.14;56.88;;
47109;Laerm;32856;51.422;6.794;2023-12-20T00:34:53;45.85;41.22;55.05;;
47109;Laerm;32856;51.422;6.794;2023-12-20T00:37:21;48.50;41.82;54.66;;
47109;Laerm;32856;51.422;6.794;2023-12-20T00:39:48;48.09;42.47;57.71;;
47109;Laerm;32856;51.422;6.794;2023-12-20T00:42:16;49.35;39.92;57.11;;
47109;Laerm;32856;51.422;6.794;2023-12-20T00:44:43;45.31;39.58;51.37;;
47109;Laerm;32856;51.422;6.794;2023-12-20T00:47:11;45.85;41.14;50.40;;
47109;Laerm;32856;51.422;6.794;2023-12-20T00:49:39;47.97;41.46;53.31;;
47109;Laerm;32856;51.422;6.794;2023-12-20T00:52:08;46.68;40.71;55.53;;
47109;Laerm;32856;51.422;6.794;2023-12-20T00:54:35;45.12;40.13;52.57;;
47109;Laerm;32856;51.422;6.794;2023-12-20T00:57:03;47.53;38.52;54.59;;
47109;Laerm;32856;51.422;6.794;2023-12-20T00:59:30;50.70;40.13;65.16;;
47109;Laerm;32856;51.422;6.794;2023-12-20T01:01:57;58.39;41.96;77.13;;
47109;Laerm;32856;51.422;6.794;2023-12-20T01:04:25;44.85;39.34;52.10;;
47109;Laerm;32856;51.422;6.794;2023-12-20T01:06:52;59.18;42.53;75.72;;
47109;Laerm;32856;51.422;6.794;2023-12-20T01:09:21;55.80;41.30;74.03;;
47109;Laerm;32856;51.422;6.794;2023-12-20T01:11:49;46.39;39.21;54.73;;
47109;Laerm;32856;51.422;6.794;2023-12-20T01:14:16;47.12;41.22;57.48;;
47109;Laerm;32856;51.422;6.794;2023-12-20T01:16:44;61.29;41.30;79.64;;
47109;Laerm;32856;51.422;6.794;2023-12-20T01:19:11;45.10;40.43;52.71;;
47109;Laerm;32856;51.422;6.794;2023-12-20T01:21:39;45.11;39.46;56.15;;
47109;Laerm;32856;51.422;6.794;2023-12-20T01:24:06;46.75;43.58;55.44;;
47109;Laerm;32856;51.422;6.794;2023-12-20T01:26:35;44.77;40.33;52.66;;
47109;Laerm;32856;51.422;6.794;2023-12-20T01:29:02;46.63;41.46;52.77;;
47109;Laerm;32856;51.422;6.794;2023-12-20T01:31:30;46.61;41.61;52.58;;
47109;Laerm;32856;51.422;6.794;2023-12-20T01:33:57;59.26;41.14;75.91;;
47109;Laerm;32856;51.422;6.794;2023-12-20T01:36:24;45.11;40.62;55.26;;
47109;Laerm;32856;51.422;6.794;2023-12-20T01:38:52;49.30;42.29;57.53;;
47109;Laerm;32856;51.422;6.794;2023-12-20T01:41:20;51.19;41.68;62.36;;
47109;Laerm;32856;51.422;6.794;2023-12-20T01:43:48;46.45;41.30;58.89;;
47109;Laerm;32856;51.422;6.794;2023-12-20T01:46:16;50.14;43.77;57.51;;
47109;Laerm;32856;51.422;6.794;2023-12-20T01:48:44;45.66;40.80;53.89;;
47109;Laerm;32856;51.422;6.794;2023-12-20T01:51:11;45.53;40.62;54.43;;
47109;Laerm;32856;51.422;6.794;2023-12-20T01:53:39;55.63;41.06;72.97;;
47109;Laerm;32856;51.422;6.794;2023-12-20T01:56:07;55.00;44.07;73.60;;
47109;Laerm;32856;51.422;6.794;2023-12-20T01:58:35;46.42;42.36;54.79;;
47109;Laerm;32856;51.422;6.794;2023-12-20T02:01:07;54.26;43.68;69.53;;
47109;Laerm;32856;51.422;6.794;2023-12-20T02:03:34;53.24;42.16;70.31;;
47109;Laerm;32856;51.422;6.794;2023-12-20T02:06:03;47.20;42.16;57.47;;
47109;Laerm;32856;51.422;6.794;2023-12-20T02:08:31;56.64;41.68;75.37;;
47109;Laerm;32856;51.422;6.794;2023-12-20T02:10:58;47.61;42.22;55.95;;
47109;Laerm;32856;51.422;6.794;2023-12-20T02:13:26;46.89;42.98;53.95;;
47109;Laerm;32856;51.422;6.794;2023-12-20T02:15:54;53.09;40.53;64.15;;
47109;Laerm;32856;51.422;6.794;2023-12-20T02:18:22;56.01;41.89;73.97;;
47109;Laerm;32856;51.422;6.794;2023-12-20T02:20:50;47.35;43.24;54.09;;
47109;Laerm;32856;51.422;6.794;2023-12-20T02:23:19;55.26;42.88;72.69;;
47109;Laerm;32856;51.422;6.794;2023-12-20T02:25:46;47.75;42.35;55.71;;
47109;Laerm;32856;51.422;6.794;2023-12-20T02:28:13;59.23;42.53;77.60;;
47109;Laerm;32856;51.422;6.794;2023-12-20T02:30:41;54.56;45.48;71.54;;
47109;Laerm;32856;51.422;6.794;2023-12-20T02:33:10;49.54;44.47;57.80;;
47109;Laerm;32856;51.422;6.794;2023-12-20T02:35:38;48.95;43.77;54.72;;
47109;Laerm;32856;51.422;6.794;2023-12-20T02:38:05;48.42;42.47;52.02;;
47109;Laerm;32856;51.422;6.794;2023-12-20T02:40:34;48.21;44.01;56.51;;
47109;Laerm;32856;51.422;6.794;2023-12-20T02:43:02;48.22;43.81;57.53;;
47109;Laerm;32856;51.422;6.794;2023-12-20T02:45:29;55.64;45.14;73.33;;
47109;Laerm;32856;51.422;6.794;2023-12-20T02:47:57;52.96;44.54;69.71;;
47109;Laerm;32856;51.422;6.794;2023-12-20T02:50:24;55.49;43.94;72.51;;
47109;Laerm;32856;51.422;6.794;2023-12-20T02:52:52;48.50;44.80;53.07;;
47109;Laerm;32856;51.422;6.794;2023-12-20T02:55:19;50.69;44.83;55.09;;
47109;Laerm;32856;51.422;6.794;2023-12-20T02:57:48;57.09;46.62;77.09;;
47109;Laerm;32856;51.422;6.794;2023-12-20T03:00:15;48.61;44.39;52.64;;
47109;Laerm;32856;51.422;6.794;2023-12-20T03:02:43;49.69;43.00;54.83;;
47109;Laerm;32856;51.422;6.794;2023-12-20T03:05:10;50.24;43.14;58.97;;
47109;Laerm;32856;51.422;6.794;2023-12-20T03:07:37;55.95;44.31;72.61;;
47109;Laerm;32856;51.422;6.794;2023-12-20T03:10:05;48.25;44.27;54.68;;
47109;Laerm;32856;51.422;6.794;2023-12-20T03:12:37;59.91;45.39;76.63;;
47109;Laerm;32856;51.422;6.794;2023-12-20T03:15:06;56.95;46.52;71.35;;
47109;Laerm;32856;51.422;6.794;2023-12-20T03:17:33;49.94;45.30;54.34;;
47109;Laerm;32856;51.422;6.794;2023-12-20T03:20:01;54.29;45.27;70.99;;
47109;Laerm;32856;51.422;6.794;2023-12-20T03:22:28;56.44;44.65;73.41;;
47109;Laerm;32856;51.422;6.794;2023-12-20T03:24:56;49.48;46.20;54.67;;
47109;Laerm;32856;51.422;6.794;2023-12-20T03:27:23;57.40;46.05;74.17;;
47109;Laerm;32856;51.422;6.794;2023-12-20T03:29:51;60.04;46.94;76.24;;
47109;Laerm;32856;51.422;6.794;2023-12-20T03:32:19;49.69;45.45;53.33;;
47109;Laerm;32856;51.422;6.794;2023-12-20T03:34:47;51.41;47.63;55.37;;
47109;Laerm;32856;51.422;6.794;2023-12-20T03:37:14;60.87;46.10;74.79;;
47109;Laerm;32856;51.422;6.794;2023-12-20T03:39:42;54.28;46.18;69.14;;
47109;Laerm;32856;51.422;6.794;2023-12-20T03:42:09;52.28;46.33;64.81;;
47109;Laerm;32856;51.422;6.794;2023-12-20T03:44:38;61.36;47.18;75.07;;
47109;Laerm;32856;51.422;6.794;2023-12-20T03:47:05;62.55;49.43;77.54;;
47109;Laerm;32856;51.422;6.794;2023-12-20T03:49:34;52.76;48.88;57.90;;
47109;Laerm;32856;51.422;6.794;2023-12-20T03:52:03;57.72;47.22;73.59;;
47109;Laerm;32856;51.422;6.794;2023-12-20T03:54:30;50.25;45.17;54.45;;
47109;Laerm;32856;51.422;6.794;2023-12-20T03:56:58;57.32;46.80;76.28;;
47109;Laerm;32856;51.422;6.794;2023-12-20T03:59:25;59.42;48.46;74.34;;
47109;Laerm;32856;51.422;6.794;2023-12-20T04:01:52;55.17;48.37;68.65;;
47109;Laerm;32856;51.422;6.794;2023-12-20T04:04:20;56.83;48.34;72.63;;
47109;Laerm;32856;51.422;6.794;2023-12-20T04:06:48;56.56;48.69;69.34;;
47109;Laerm;32856;51.422;6.794;2023-12-20T04:09:16;61.02;48.64;74.93;;
47109;Laerm;32856;51.422;6.794;2023-12-20T04:11:43;52.85;48.36;57.68;;
47109;Laerm;32856;51.422;6.794;2023-12-20T04:14:11;55.93;47.42;70.96;;
47109;Laerm;32856;51.422;6.794;2023-12-20T04:16:38;63.47;50.12;77.59;;
47109;Laerm;32856;51.422;6.794;2023-12-20T04:19:07;57.43;49.21;72.70;;
47109;Laerm;32856;51.422;6.794;2023-12-20T04:21:34;59.20;48.90;74.01;;
47109;Laerm;32856;51.422;6.794;2023-12-20T04:24:03;59.72;49.85;76.29;;
47109;Laerm;32856;51.422;6.794;2023-12-20T04:26:31;58.26;49.23;74.41;;
47109;Laerm;32856;51.422;6.794;2023-12-20T04:28:58;55.23;50.15;68.55;;
47109;Laerm;32856;51.422;6.794;2023-12-20T04:31:25;59.22;50.60;75.34;;
47109;Laerm;32856;51.422;6.794;2023-12-20T04:33:53;58.50;49.72;72.64;;
47109;Laerm;32856;51.422;6.794;2023-12-20T04:36:20;61.27;48.57;74.45;;
47109;Laerm;32856;51.422;6.794;2023-12-20T04:38:47;60.75;49.07;76.00;;
47109;Laerm;32856;51.422;6.794;2023-12-20T04:41:16;60.61;50.75;75.14;;
47109;Laerm;32856;51.422;6.794;2023-12-20T04:43:44;58.36;50.24;72.64;;
47109;Laerm;32856;51.422;6.794;2023-12-20T04:46:12;64.97;49.55;78.43;;
47109;Laerm;32856;51.422;6.794;2023-12-20T04:48:39;63.18;50.20;74.64;;
47109;Laerm;32856;51.422;6.794;2023-12-20T04:51:06;60.11;49.90;74.27;;
47109;Laerm;32856;51.422;6.794;2023-12-20T04:53:34;62.44;50.00;76.12;;
47109;Laerm;32856;51.422;6.794;2023-12-20T04:56:01;53.93;50.65;60.28;;
47109;Laerm;32856;51.422;6.794;2023-12-20T04:58:30;60.78;50.86;75.80;;
47109;Laerm;32856;51.422;6.794;2023-12-20T05:00:58;59.07;51.35;73.47;;
47109;Laerm;32856;51.422;6.794;2023-12-20T05:03:25;61.92;51.81;75.18;;
47109;Laerm;32856;51.422;6.794;2023-12-20T05:05:52;62.61;51.53;76.17;;
47109;Laerm;32856;51.422;6.794;2023-12-20T05:08:20;60.77;50.40;74.00;;
47109;Laerm;32856;51.422;6.794;2023-12-20T05:10:47;60.71;52.28;71.69;;
47109;Laerm;32856;51.422;6.794;2023-12-20T05:13:15;62.43;51.57;73.44;;
47109;Laerm;32856;51.422;6.794;2023-12-20T05:15:44;63.50;50.44;78.39;;
47109;Laerm;32856;51.422;6.794;2023-12-20T05:18:11;62.44;51.14;78.50;;
47109;Laerm;32856;51.422;6.794;2023-12-20T05:20:39;64.15;51.80;74.49;;
47109;Laerm;32856;51.422;6.794;2023-12-20T05:23:06;61.84;51.29;72.96;;
47109;Laerm;32856;51.422;6.794;2023-12-20T05:25:34;60.76;51.44;71.79;;
47109;Laerm;32856;51.422;6.794;2023-12-20T05:28:01;57.96;50.99;72.48;;
47109;Laerm;32856;51.422;6.794;2023-12-20T05:30:28;65.01;52.50;76.70;;
47109;Laerm;32856;51.422;6.794;2023-12-20T05:32:57;65.50;52.21;81.37;;
47109;Laerm;32856;51.422;6.794;2023-12-20T05:35:24;62.63;51.59;75.60;;
47109;Laerm;32856;51.422;6.794;2023-12-20T05:37:52;62.43;51.59;73.37;;
47109;Laerm;32856;51.422;6.794;2023-12-20T05:40:19;66.32;51.50;81.82;;
47109;Laerm;32856;51.422;6.794;2023-12-20T05:42:47;64.19;51.62;75.72;;
47109;Laerm;32856;51.422;6.794;2023-12-20T05:45:15;62.22;51.75;74.37;;
47109;Laerm;32856;51.422;6.794;2023-12-20T05:47:42;63.26;51.84;73.37;;
47109;Laerm;32856;51.422;6.794;2023-12-20T05:50:11;65.73;52.98;78.64;;
47109;Laerm;32856;51.422;6.794;2023-12-20T05:52:38;61.80;51.50;74.26;;
47109;Laerm;32856;51.422;6.794;2023-12-20T05:55:06;64.04;51.61;78.49;;
47109;Laerm;32856;51.422;6.794;2023-12-20T05:57:33;65.55;53.72;77.20;;
47109;Laerm;32856;51.422;6.794;2023-12-20T06:00:00;63.80;51.97;73.98;;
47109;Laerm;32856;51.422;6.794;2023-12-20T06:02:28;65.71;51.01;75.90;;
47109;Laerm;32856;51.422;6.794;2023-12-20T06:04:55;65.73;51.86;75.56;;
47109;Laerm;32856;51.422;6.794;2023-12-20T06:07:24;65.27;51.69;75.90;;
47109;Laerm;32856;51.422;6.794;2023-12-20T06:09:51;62.99;50.98;74.59;;
47109;Laerm;32856;51.422;6.794;2023-12-20T06:12:19;65.18;50.33;76.18;;
47109;Laerm;32856;51.422;6.794;2023-12-20T06:14:47;67.34;50.93;86.18;;
47109;Laerm;32856;51.422;6.794;2023-12-20T06:17:15;64.49;50.64;75.09;;
47109;Laerm;32856;51.422;6.794;2023-12-20T06:19:42;62.27;52.15;74.74;;
47109;Laerm;32856;51.422;6.794;2023-12-20T06:22:11;63.91;51.85;74.21;;
47109;Laerm;32856;51.422;6.794;2023-12-20T06:24:40;68.55;51.86;84.25;;
47109;Laerm;32856;51.422;6.794;2023-12-20T06:27:07;65.11;52.24;76.99;;
47109;Laerm;32856;51.422;6.794;2023-12-20T06:29:34;65.00;50.18;75.83;;
47109;Laerm;32856;51.422;6.794;2023-12-20T06:32:02;67.45;52.53;79.36;;
47109;Laerm;32856;51.422;6.794;2023-12-20T06:34:29;64.61;50.88;76.19;;
47109;Laerm;32856;51.422;6.794;2023-12-20T06:36:57;65.96;51.05;74.95;;
47109;Laerm;32856;51.422;6.794;2023-12-20T06:39:24;67.09;52.41;76.07;;
47109;Laerm;32856;51.422;6.794;2023-12-20T06:41:53;65.03;51.55;76.27;;
47109;Laerm;32856;51.422;6.794;2023-12-20T06:44:20;66.61;52.50;76.81;;
47109;Laerm;32856;51.422;6.794;2023-12-20T06:46:47;63.96;50.90;74.93;;
47109;Laerm;32856;51.422;6.794;2023-12-20T06:49:15;67.21;51.05;78.10;;
47109;Laerm;32856;51.422;6.794;2023-12-20T06:51:43;67.62;52.09;79.81;;
47109;Laerm;32856;51.422;6.794;2023-12-20T06:54:11;67.19;52.84;76.20;;
47109;Laerm;32856;51.422;6.794;2023-12-20T06:56:38;65.07;52.60;74.18;;
47109;Laerm;32856;51.422;6.794;2023-12-20T06:59:07;67.27;52.91;77.33;;
47109;Laerm;32856;51.422;6.794;2023-12-20T07:01:34;65.76;51.35;76.06;;
47109;Laerm;32856;51.422;6.794;2023-12-20T07:04:02;66.31;51.30;74.49;;
47109;Laerm;32856;51.422;6.794;2023-12-20T07:06:29;66.07;52.69;75.21;;
47109;Laerm;32856;51.422;6.794;2023-12-20T07:08:57;68.17;51.46;81.62;;
47109;Laerm;32856;51.422;6.794;2023-12-20T07:11:24;67.17;52.21;78.89;;
47109;Laerm;32856;51.422;6.794;2023-12-20T07:13:52;67.19;52.98;81.92;;
47109;Laerm;32856;51.422;6.794;2023-12-20T07:16:21;64.61;52.36;78.05;;
47109;Laerm;32856;51.422;6.794;2023-12-20T07:18:49;66.33;52.73;76.78;;
47109;Laerm;32856;51.422;6.794;2023-12-20T07:21:16;64.42;51.53;79.43;;
47109;Laerm;32856;51.422;6.794;2023-12-20T07:23:44;67.29;52.64;77.98;;
47109;Laerm;32856;51.422;6.794;2023-12-20T07:26:11;66.32;52.26;78.41;;
47109;Laerm;32856;51.422;6.794;2023-12-20T07:28:38;65.63;51.72;77.20;;
47109;Laerm;32856;51.422;6.794;2023-12-20T07:31:06;63.56;51.55;78.43;;
47109;Laerm;32856;51.422;6.794;2023-12-20T07:33:35;64.62;51.82;74.59;;
47109;Laerm;32856;51.422;6.794;2023-12-20T07:36:04;66.14;51.30;77.94;;
47109;Laerm;32856;51.422;6.794;2023-12-20T07:38:32;65.35;51.40;80.78;;
47109;Laerm;32856;51.422;6.794;2023-12-20T07:40:59;66.92;53.59;76.36;;
47109;Laerm;32856;51.422;6.794;2023-12-20T07:43:27;64.30;51.56;77.65;;
47109;Laerm;32856;51.422;6.794;2023-12-20T07:45:54;64.29;51.82;74.37;;
47109;Laerm;32856;51.422;6.794;2023-12-20T07:48:21;66.51;52.92;74.52;;
47109;Laerm;32856;51.422;6.794;2023-12-20T07:50:50;70.85;53.43;82.11;;
47109;Laerm;32856;51.422;6.794;2023-12-20T07:53:19;67.07;51.13;78.81;;
47109;Laerm;32856;51.422;6.794;2023-12-20T07:55:46;66.46;50.76;78.32;;
47109;Laerm;32856;51.422;6.794;2023-12-20T07:58:13;65.30;51.06;76.06;;
47109;Laerm;32856;51.422;6.794;2023-12-20T08:00:41;65.04;51.21;76.73;;
47109;Laerm;32856;51.422;6.794;2023-12-20T08:03:08;64.65;51.80;78.05;;
47109;Laerm;32856;51.422;6.794;2023-12-20T08:05:35;66.76;50.61;77.39;;
47109;Laerm;32856;51.422;6.794;2023-12-20T08:08:05;62.28;50.30;73.26;;
47109;Laerm;32856;51.422;6.794;2023-12-20T08:10:32;67.62;51.51;80.17;;
47109;Laerm;32856;51.422;6.794;2023-12-20T08:13:00;66.09;52.79;78.18;;
47109;Laerm;32856;51.422;6.794;2023-12-20T08:15:27;63.85;50.00;76.98;;
47109;Laerm;32856;51.422;6.794;2023-12-20T08:17:55;63.21;51.85;75.94;;
47109;Laerm;32856;51.422;6.794;2023-12-20T08:20:22;66.21;51.15;78.42;;
47109;Laerm;32856;51.422;6.794;2023-12-20T08:22:55;67.27;52.24;78.37;;
47109;Laerm;32856;51.422;6.794;2023-12-20T08:25:23;63.78;48.85;75.72;;
47109;Laerm;32856;51.422;6.794;2023-12-20T08:27:51;66.45;51.73;77.15;;
47109;Laerm;32856;51.422;6.794;2023-12-20T08:30:18;71.93;53.34;86.19;;
47109;Laerm;32856;51.422;6.794;2023-12-20T08:32:48;62.02;50.58;73.61;;
47109;Laerm;32856;51.422;6.794;2023-12-20T08:35:15;66.17;50.42;83.48;;
47109;Laerm;32856;51.422;6.794;2023-12-20T08:37:43;65.47;51.62;74.92;;
47109;Laerm;32856;51.422;6.794;2023-12-20T08:40:11;64.37;51.85;80.24;;
47109;Laerm;32856;51.422;6.794;2023-12-20T08:42:39;66.40;51.77;78.90;;
47109;Laerm;32856;51.422;6.794;2023-12-20T08:45:06;64.53;50.48;77.70;;
47109;Laerm;32856;51.422;6.794;2023-12-20T08:47:34;62.66;51.72;75.85;;
47109;Laerm;32856;51.422;6.794;2023-12-20T08:50:01;65.73;50.61;77.38;;
47109;Laerm;32856;51.422;6.794;2023-12-20T08:52:29;66.67;54.60;75.61;;
47109;Laerm;32856;51.422;6.794;2023-12-20T08:54:56;64.89;52.31;82.02;;
47109;Laerm;32856;51.422;6.794;2023-12-20T08:57:24;64.58;51.06;77.25;;
47109;Laerm;32856;51.422;6.794;2023-12-20T08:59:52;65.13;51.70;75.96;;
47109;Laerm;32856;51.422;6.794;2023-12-20T09:02:20;64.65;51.53;81.18;;
47109;Laerm;32856;51.422;6.794;2023-12-20T09:04:47;66.25;51.72;82.82;;
47109;Laerm;32856;51.422;6.794;2023-12-20T09:07:21;63.13;50.93;74.61;;
47109;Laerm;32856;51.422;6.794;2023-12-20T09:09:49;66.07;51.65;78.22;;
47109;Laerm;32856;51.422;6.794;2023-12-20T09:12:17;65.89;52.04;76.31;;
47109;Laerm;32856;51.422;6.794;2023-12-20T09:14:44;65.27;53.21;75.15;;
47109;Laerm;32856;51.422;6.794;2023-12-20T09:17:13;63.30;50.70;78.79;;
47109;Laerm;32856;51.422;6.794;2023-12-20T09:19:40;63.60;52.26;73.42;;
47109;Laerm;32856;51.422;6.794;2023-12-20T09:22:07;65.64;51.38;79.39;;
47109;Laerm;32856;51.422;6.794;2023-12-20T09:24:35;66.97;52.65;82.83;;
47109;Laerm;32856;51.422;6.794;2023-12-20T09:27:02;63.51;51.64;74.44;;
47109;Laerm;32856;51.422;6.794;2023-12-20T09:29:30;61.40;50.54;74.61;;
47109;Laerm;32856;51.422;6.794;2023-12-20T09:31:58;63.19;51.74;79.32;;
47109;Laerm;32856;51.422;6.794;2023-12-20T09:34:26;62.79;53.13;75.12;;
47109;Laerm;32856;51.422;6.794;2023-12-20T09:36:54;66.22;52.24;78.79;;
47109;Laerm;32856;51.422;6.794;2023-12-20T09:39:21;65.57;52.13;77.99;;
47109;Laerm;32856;51.422;6.794;2023-12-20T09:41:51;63.75;51.57;75.63;;
47109;Laerm;32856;51.422;6.794;2023-12-20T09:44:23;65.55;51.31;77.12;;
47109;Laerm;32856;51.422;6.794;2023-12-20T09:46:51;64.40;51.73;75.56;;
47109;Laerm;32856;51.422;6.794;2023-12-20T09:49:19;65.85;53.04;77.40;;
47109;Laerm;32856;51.422;6.794;2023-12-20T09:51:49;66.62;51.59;79.57;;
47109;Laerm;32856;51.422;6.794;2023-12-20T09:54:17;64.00;52.42;75.44;;
47109;Laerm;32856;51.422;6.794;2023-12-20T09:56:45;64.08;51.98;79.49;;
47109;Laerm;32856;51.422;6.794;2023-12-20T09:59:13;61.33;51.40;72.17;;
47109;Laerm;32856;51.422;6.794;2023-12-20T10:01:41;64.24;51.07;77.68;;
47109;Laerm;32856;51.422;6.794;2023-12-20T10:04:09;67.42;53.96;85.86;;
47109;Laerm;32856;51.422;6.794;2023-12-20T10:06:49;68.11;51.79;79.08;;
47109;Laerm;32856;51.422;6.794;2023-12-20T10:09:18;68.00;51.49;90.76;;
47109;Laerm;32856;51.422;6.794;2023-12-20T10:11:45;65.37;51.69;79.37;;
47109;Laerm;32856;51.422;6.794;2023-12-20T10:14:13;66.16;51.95;76.68;;
47109;Laerm;32856;51.422;6.794;2023-12-20T10:16:40;65.01;52.96;82.25;;
47109;Laerm;32856;51.422;6.794;2023-12-20T10:19:08;65.78;51.34;81.30;;
47109;Laerm;32856;51.422;6.794;2023-12-20T10:21:35;65.21;51.51;74.68;;
47109;Laerm;32856;51.422;6.794;2023-12-20T10:24:04;65.73;50.93;79.21;;
47109;Laerm;32856;51.422;6.794;2023-12-20T10:26:31;65.83;51.87;76.06;;
47109;Laerm;32856;51.422;6.794;2023-12-20T10:28:59;64.12;52.62;90.53;;
47109;Laerm;32856;51.422;6.794;2023-12-20T10:31:28;64.59;52.64;75.12;;
47109;Laerm;32856;51.422;6.794;2023-12-20T10:33:56;65.25;52.57;76.17;;
47109;Laerm;32856;51.422;6.794;2023-12-20T10:36:24;65.53;51.67;80.06;;
47109;Laerm;32856;51.422;6.794;2023-12-20T10:38:53;65.11;52.14;77.53;;
47109;Laerm;32856;51.422;6.794;2023-12-20T10:41:24;66.65;52.44;80.18;;
47109;Laerm;32856;51.422;6.794;2023-12-20T10:43:52;65.59;51.81;76.84;;
47109;Laerm;32856;51.422;6.794;2023-12-20T10:46:19;66.29;50.80;78.98;;
47109;Laerm;32856;51.422;6.794;2023-12-20T10:48:47;65.28;52.49;75.27;;
47109;Laerm;32856;51.422;6.794;2023-12-20T10:51:17;64.85;51.50;77.45;;
47109;Laerm;32856;51.422;6.794;2023-12-20T10:53:44;68.20;51.82;83.38;;
47109;Laerm;32856;51.422;6.794;2023-12-20T10:56:16;66.65;51.91;78.96;;
47109;Laerm;32856;51.422;6.794;2023-12-20T10:58:46;65.99;52.19;78.18;;
47109;Laerm;32856;51.422;6.794;2023-12-20T11:01:14;64.04;51.77;76.05;;
47109;Laerm;32856;51.422;6.794;2023-12-20T11:03:43;65.78;52.76;77.37;;
47109;Laerm;32856;51.422;6.794;2023-12-20T11:06:14;68.57;50.77;86.33;;
47109;Laerm;32856;51.422;6.794;2023-12-20T11:08:46;65.45;50.06;80.55;;
47109;Laerm;32856;51.422;6.794;2023-12-20T11:11:17;66.34;50.51;79.63;;
47109;Laerm;32856;51.422;6.794;2023-12-20T11:13:54;64.56;51.90;74.24;;
47109;Laerm;32856;51.422;6.794;2023-12-20T11:16:22;63.75;51.03;76.19;;
47109;Laerm;32856;51.422;6.794;2023-12-20T11:18:53;62.19;50.95;73.49;;
47109;Laerm;32856;51.422;6.794;2023-12-20T11:21:20;63.55;52.71;76.53;;
47109;Laerm;32856;51.422;6.794;2023-12-20T11:23:48;64.27;52.86;76.72;;
47109;Laerm;32856;51.422;6.794;2023-12-20T11:26:15;66.13;51.57;79.75;;
47109;Laerm;32856;51.422;6.794;2023-12-20T11:28:43;65.73;52.31;75.23;;
47109;Laerm;32856;51.422;6.794;2023-12-20T11:31:12;65.68;51.54;76.67;;
47109;Laerm;32856;51.422;6.794;2023-12-20T11:33:41;66.71;52.22;79.17;;
47109;Laerm;32856;51.422;6.794;2023-12-20T11:36:13;65.55;52.51;83.53;;
47109;Laerm;32856;51.422;6.794;2023-12-20T11:38:49;65.42;52.42;76.06;;
47109;Laerm;32856;51.422;6.794;2023-12-20T11:41:22;63.77;51.12;76.72;;
47109;Laerm;32856;51.422;6.794;2023-12-20T11:43:49;66.96;51.89;76.37;;
47109;Laerm;32856;51.422;6.794;2023-12-20T11:46:21;64.44;51.47;76.66;;
47109;Laerm;32856;51.422;6.794;2023-12-20T11:48:49;64.14;51.68;76.19;;
47109;Laerm;32856;51.422;6.794;2023-12-20T11:51:16;67.59;51.44;83.76;;
47109;Laerm;32856;51.422;6.794;2023-12-20T11:53:44;67.93;52.40;85.18;;
47109;Laerm;32856;51.422;6.794;2023-12-20T11:56:11;64.77;51.33;75.72;;
47109;Laerm;32856;51.422;6.794;2023-12-20T11:58:39;64.99;50.92;78.19;;
47109;Laerm;32856;51.422;6.794;2023-12-20T12:01:07;64.97;51.26;77.81;;
47109;Laerm;32856;51.422;6.794;2023-12-20T12:03:36;65.06;51.36;76.80;;
47109;Laerm;32856;51.422;6.794;2023-12-20T12:06:04;65.46;51.29;79.50;;
47109;Laerm;32856;51.422;6.794;2023-12-20T12:08:31;64.96;50.42;75.72;;
47109;Laerm;32856;51.422;6.794;2023-12-20T12:10:59;67.59;51.42;76.94;;
47109;Laerm;32856;51.422;6.794;2023-12-20T12:13:27;66.61;50.33;77.42;;
47109;Laerm;32856;51.422;6.794;2023-12-20T12:15:54;67.31;51.30;77.19;;
47109;Laerm;32856;51.422;6.794;2023-12-20T12:18:22;66.89;50.92;81.09;;
47109;Laerm;32856;51.422;6.794;2023-12-20T12:20:51;69.27;53.28;82.42;;
47109;Laerm;32856;51.422;6.794;2023-12-20T12:23:26;61.09;50.45;76.09;;
47109;Laerm;32856;51.422;6.794;2023-12-20T12:25:54;66.36;51.29;80.44;;
47109;Laerm;32856;51.422;6.794;2023-12-20T12:28:22;69.29;50.73;85.40;;
47109;Laerm;32856;51.422;6.794;2023-12-20T12:30:57;64.41;50.82;74.98;;
47109;Laerm;32856;51.422;6.794;2023-12-20T12:33:24;64.71;50.05;76.59;;
47109;Laerm;32856;51.422;6.794;2023-12-20T12:35:54;65.17;50.75;77.51;;
47109;Laerm;32856;51.422;6.794;2023-12-20T12:38:22;65.47;51.03;77.72;;
47109;Laerm;32856;51.422;6.794;2023-12-20T12:40:49;64.99;52.53;75.40;;
47109;Laerm;32856;51.422;6.794;2023-12-20T12:43:19;66.75;52.31;78.03;;
47109;Laerm;32856;51.422;6.794;2023-12-20T12:45:48;63.87;50.02;76.71;;
47109;Laerm;32856;51.422;6.794;2023-12-20T12:48:16;67.85;51.69;81.18;;
47109;Laerm;32856;51.422;6.794;2023-12-20T12:50:44;64.74;49.11;77.85;;
47109;Laerm;32856;51.422;6.794;2023-12-20T12:53:13;65.36;50.14;79.11;;
47109;Laerm;32856;51.422;6.794;2023-12-20T12:55:41;67.74;52.97;79.65;;
47109;Laerm;32856;51.422;6.794;2023-12-20T12:58:08;66.84;52.04;81.82;;
47109;Laerm;32856;51.422;6.794;2023-12-20T13:00:36;65.85;50.77;78.36;;
47109;Laerm;32856;51.422;6.794;2023-12-20T13:03:03;65.99;51.31;76.36;;
47109;Laerm;32856;51.422;6.794;2023-12-20T13:05:30;66.27;51.29;78.02;;
47109;Laerm;32856;51.422;6.794;2023-12-20T13:08:00;64.78;49.64;78.49;;
47109;Laerm;32856;51.422;6.794;2023-12-20T13:10:29;66.09;49.60;77.93;;
47109;Laerm;32856;51.422;6.794;2023-12-20T13:12:57;66.44;49.53;76.24;;
47109;Laerm;32856;51.422;6.794;2023-12-20T13:15:24;67.31;49.33;77.82;;
47109;Laerm;32856;51.422;6.794;2023-12-20T13:17:52;67.33;53.06;77.62;;
47109;Laerm;32856;51.422;6.794;2023-12-20T13:20:19;66.75;50.72;77.82;;
47109;Laerm;32856;51.422;6.794;2023-12-20T13:22:48;66.91;49.33;78.79;;
47109;Laerm;32856;51.422;6.794;2023-12-20T13:25:15;69.39;50.14;80.78;;
47109;Laerm;32856;51.422;6.794;2023-12-20T13:27:44;69.75;52.98;82.49;;
47109;Laerm;32856;51.422;6.794;2023-12-20T13:30:12;68.08;51.03;78.45;;
47109;Laerm;32856;51.422;6.794;2023-12-20T13:32:40;67.21;49.25;79.46;;
47109;Laerm;32856;51.422;6.794;2023-12-20T13:35:07;65.57;49.10;75.86;;
47109;Laerm;32856;51.422;6.794;2023-12-20T13:37:35;69.44;51.63;77.92;;
47109;Laerm;32856;51.422;6.794;2023-12-20T13:40:03;68.68;49.43;81.09;;
47109;Laerm;32856;51.422;6.794;2023-12-20T13:42:32;69.80;52.57;81.54;;
47109;Laerm;32856;51.422;6.794;2023-12-20T13:45:00;68.50;49.47;80.23;;
47109;Laerm;32856;51.422;6.794;2023-12-20T13:47:30;68.18;50.90;78.73;;